메인 페이지
METAR-TAF:

METAR-TAF

공항 :

Resolute, 누나부트, 캐나다

위도: 74-43N, 경도: 094-59W, 고도: 67m

현재 날씨관측

예보는 11분 전, 14:00시(UTC)에 발표되었습니다.
11kt풍과 풍을 오가는
온도 -23°C
습도 76%
기압 1004 hPa
시정: 16.1km
고도 4000ft 상공 구름 보통
고도 4500ft 상공 흐림
약한눈

METAR: CYRB 061400Z 36011KT 260V010 10SM -SN SCT040 OVC045 M23/M26 A2965 RMK SC4SC4 SLP055

시각: 08:11 (14:11 UTC)

예보

예보는 2 시간 33분 전, 11:38시(UTC)에 발표되었습니다.
예보 대상 시간: 06일 12시부터 07일 12시까지 (UTC)
서북서10kt
시정: 10km
고도 2000ft 상공 구름 보통
고도 11000ft 상공 구름 많음
일시적
06일 12시부터 06일 18시까지 (UTC)
시정: 3.2km
고도 2000ft 상공 흐림
약한소낙눈
전환 중
06일 12시부터 06일 14시까지 (UTC)
15kt
06일 1800시부터 (UTC)
북북동18kt
시정: 10km
고도 2000ft 상공 구름 조금
일시적
06일 18시부터 06일 21시까지 (UTC)
시정: 8.0km
약한눈, 날린눈
전환 중
06일 19시부터 06일 21시까지 (UTC)
동북동10kt

TAF: CYRB 061138Z 0612/0712 29010KT P6SM SCT020 BKN110 TEMPO 0612/0618 2SM -SHSN OVC020 BECMG 0612/0614 35015KT FM061800 02018KT P6SM FEW020 TEMPO 0618/0621 5SM -SN BLSN BECMG 0619/0621 06010KT RMK NXT FCST BY 061800Z

4,000개 이상의 공항 관측 자료 및 예보 (METAR 및 TAF 보고).

지도상에서 검색 가능한 기상관측소가 노란 점과 빨간 점으로 표시되어 있습니다.

기상관측소 명을 보려면 표시 위로 마우스를 이동하세요.

날씨 관측과 예보를 보려면 클릭하세요.

지도 변경 : 확대하려면 엑스 표시가 있는 녹색 버튼, 축소하려면 빼기 표시가 있는 녹색 버튼, 다음 페이지의 지도를 보려면 녹색 화살표를 클릭하세요.


METAR-TAF: